Alma, Kansas
Current Conditions -  °F | °C
As of 3:52 PM on Monday 20 Oct 2014 (Local Time) from KMHK Reporting Station
Clear Clear  
Wind Chill: 77°   Ceiling: Unl
Heat Index: 78°   Visibility: 10mi
Dew Point: 46°   Wind: 7mph
Humidity: 33%   Direction: 50°NE
Pressure: 30.03"   Gusts: NA
Location:  39.02°N, 96.29°W
Report Text: KMHK 202052Z 05006KT 10SM CLR 25/08 A3003 RMK AO2 SLP167 T02500078 56015
Loading
Personal Weather Stations






























Interactive Weather Map
Tropical Storm Tracking
New forecast layout! Learn more

10-Day Weather Forecast

Advertisements
Track Severe Weather on mobile